sensor_id;sensor_type;location;lat;lon;timestamp;P1;durP1;ratioP1;P2;durP2;ratioP2
74213;SDS011;62576;55.694;37.494;2023-03-13T00:01:39;5.95;;;1.70;;
74213;SDS011;62576;55.694;37.494;2023-03-13T00:04:11;3.25;;;1.08;;
74213;SDS011;62576;55.694;37.494;2023-03-13T00:06:41;5.35;;;1.35;;
74213;SDS011;62576;55.694;37.494;2023-03-13T00:09:12;3.70;;;1.30;;
74213;SDS011;62576;55.694;37.494;2023-03-13T00:11:44;2.72;;;1.27;;
74213;SDS011;62576;55.694;37.494;2023-03-13T00:14:15;2.65;;;1.20;;
74213;SDS011;62576;55.694;37.494;2023-03-13T00:16:47;1.63;;;1.02;;
74213;SDS011;62576;55.694;37.494;2023-03-13T00:19:17;4.05;;;1.50;;
74213;SDS011;62576;55.694;37.494;2023-03-13T00:21:47;2.50;;;1.20;;
74213;SDS011;62576;55.694;37.494;2023-03-13T00:24:17;3.58;;;1.20;;
74213;SDS011;62576;55.694;37.494;2023-03-13T00:26:47;7.03;;;1.20;;
74213;SDS011;62576;55.694;37.494;2023-03-13T00:29:19;2.20;;;1.20;;
74213;SDS011;62576;55.694;37.494;2023-03-13T00:31:49;1.80;;;1.00;;
74213;SDS011;62576;55.694;37.494;2023-03-13T00:34:19;1.80;;;1.10;;
74213;SDS011;62576;55.694;37.494;2023-03-13T00:36:49;2.92;;;1.30;;
74213;SDS011;62576;55.694;37.494;2023-03-13T00:39:19;2.45;;;1.15;;
74213;SDS011;62576;55.694;37.494;2023-03-13T00:41:50;3.22;;;1.10;;
74213;SDS011;62576;55.694;37.494;2023-03-13T00:44:21;4.32;;;1.30;;
74213;SDS011;62576;55.694;37.494;2023-03-13T00:46:54;2.78;;;1.15;;
74213;SDS011;62576;55.694;37.494;2023-03-13T00:49:24;4.30;;;1.30;;
74213;SDS011;62576;55.694;37.494;2023-03-13T00:51:54;6.90;;;2.08;;
74213;SDS011;62576;55.694;37.494;2023-03-13T00:54:33;16.80;;;4.88;;
74213;SDS011;62576;55.694;37.494;2023-03-13T00:57:03;18.67;;;4.25;;
74213;SDS011;62576;55.694;37.494;2023-03-13T00:59:32;12.95;;;3.70;;
74213;SDS011;62576;55.694;37.494;2023-03-13T01:02:02;8.73;;;2.60;;
74213;SDS011;62576;55.694;37.494;2023-03-13T01:04:34;6.93;;;2.15;;
74213;SDS011;62576;55.694;37.494;2023-03-13T01:07:04;4.03;;;1.92;;
74213;SDS011;62576;55.694;37.494;2023-03-13T01:09:34;3.10;;;1.45;;
74213;SDS011;62576;55.694;37.494;2023-03-13T01:12:05;4.97;;;1.98;;
74213;SDS011;62576;55.694;37.494;2023-03-13T01:14:36;4.35;;;1.55;;
74213;SDS011;62576;55.694;37.494;2023-03-13T01:17:06;4.90;;;2.10;;
74213;SDS011;62576;55.694;37.494;2023-03-13T01:19:36;6.05;;;2.50;;
74213;SDS011;62576;55.694;37.494;2023-03-13T01:22:06;8.45;;;3.13;;
74213;SDS011;62576;55.694;37.494;2023-03-13T01:24:39;9.75;;;3.10;;
74213;SDS011;62576;55.694;37.494;2023-03-13T01:27:09;6.45;;;2.75;;
74213;SDS011;62576;55.694;37.494;2023-03-13T01:29:41;7.75;;;2.42;;
74213;SDS011;62576;55.694;37.494;2023-03-13T01:32:11;7.43;;;2.50;;
74213;SDS011;62576;55.694;37.494;2023-03-13T01:34:41;2.58;;;1.17;;
74213;SDS011;62576;55.694;37.494;2023-03-13T01:37:11;6.35;;;1.88;;
74213;SDS011;62576;55.694;37.494;2023-03-13T01:39:41;4.78;;;1.90;;
74213;SDS011;62576;55.694;37.494;2023-03-13T01:42:11;5.32;;;1.85;;
74213;SDS011;62576;55.694;37.494;2023-03-13T01:47:28;2.55;;;1.35;;
74213;SDS011;62576;55.694;37.494;2023-03-13T01:49:58;4.78;;;1.73;;
74213;SDS011;62576;55.694;37.494;2023-03-13T01:52:28;7.97;;;2.42;;
74213;SDS011;62576;55.694;37.494;2023-03-13T01:54:59;6.63;;;2.47;;
74213;SDS011;62576;55.694;37.494;2023-03-13T01:57:29;9.65;;;2.80;;
74213;SDS011;62576;55.694;37.494;2023-03-13T02:00:04;11.70;;;4.53;;
74213;SDS011;62576;55.694;37.494;2023-03-13T02:02:39;13.68;;;4.68;;
74213;SDS011;62576;55.694;37.494;2023-03-13T02:07:44;16.70;;;8.05;;
74213;SDS011;62576;55.694;37.494;2023-03-13T02:10:16;20.27;;;7.40;;
74213;SDS011;62576;55.694;37.494;2023-03-13T02:12:49;25.10;;;9.43;;
74213;SDS011;62576;55.694;37.494;2023-03-13T02:15:22;24.75;;;7.93;;
74213;SDS011;62576;55.694;37.494;2023-03-13T02:17:54;15.70;;;5.40;;
74213;SDS011;62576;55.694;37.494;2023-03-13T02:20:25;12.82;;;4.82;;
74213;SDS011;62576;55.694;37.494;2023-03-13T02:22:57;10.95;;;3.92;;
74213;SDS011;62576;55.694;37.494;2023-03-13T02:25:36;6.05;;;2.53;;
74213;SDS011;62576;55.694;37.494;2023-03-13T02:28:11;8.98;;;2.70;;
74213;SDS011;62576;55.694;37.494;2023-03-13T02:30:45;3.67;;;1.42;;
74213;SDS011;62576;55.694;37.494;2023-03-13T02:33:17;5.60;;;1.63;;
74213;SDS011;62576;55.694;37.494;2023-03-13T02:35:55;3.63;;;1.60;;
74213;SDS011;62576;55.694;37.494;2023-03-13T02:38:28;4.57;;;1.83;;
74213;SDS011;62576;55.694;37.494;2023-03-13T02:41:01;3.07;;;1.40;;
74213;SDS011;62576;55.694;37.494;2023-03-13T02:43:34;3.17;;;1.20;;
74213;SDS011;62576;55.694;37.494;2023-03-13T02:46:09;2.13;;;1.25;;
74213;SDS011;62576;55.694;37.494;2023-03-13T02:48:45;5.20;;;1.10;;
74213;SDS011;62576;55.694;37.494;2023-03-13T02:51:21;1.50;;;0.82;;
74213;SDS011;62576;55.694;37.494;2023-03-13T02:53:59;1.55;;;1.00;;
74213;SDS011;62576;55.694;37.494;2023-03-13T02:56:37;1.58;;;1.05;;
74213;SDS011;62576;55.694;37.494;2023-03-13T02:59:10;2.00;;;0.90;;
74213;SDS011;62576;55.694;37.494;2023-03-13T03:01:40;2.00;;;1.10;;
74213;SDS011;62576;55.694;37.494;2023-03-13T03:04:10;3.40;;;1.30;;
74213;SDS011;62576;55.694;37.494;2023-03-13T03:06:40;2.10;;;1.23;;
74213;SDS011;62576;55.694;37.494;2023-03-13T03:09:10;3.03;;;1.38;;
74213;SDS011;62576;55.694;37.494;2023-03-13T03:11:42;2.55;;;1.20;;
74213;SDS011;62576;55.694;37.494;2023-03-13T03:14:13;3.50;;;1.40;;
74213;SDS011;62576;55.694;37.494;2023-03-13T03:16:44;2.88;;;1.35;;
74213;SDS011;62576;55.694;37.494;2023-03-13T03:19:14;2.70;;;1.30;;
74213;SDS011;62576;55.694;37.494;2023-03-13T03:21:52;1.98;;;1.10;;
74213;SDS011;62576;55.694;37.494;2023-03-13T03:24:22;3.17;;;1.10;;
74213;SDS011;62576;55.694;37.494;2023-03-13T03:26:56;1.58;;;0.95;;
74213;SDS011;62576;55.694;37.494;2023-03-13T03:29:26;1.88;;;0.90;;
74213;SDS011;62576;55.694;37.494;2023-03-13T03:31:56;1.98;;;1.00;;
74213;SDS011;62576;55.694;37.494;2023-03-13T03:34:26;1.48;;;0.95;;
74213;SDS011;62576;55.694;37.494;2023-03-13T03:36:56;2.80;;;1.38;;
74213;SDS011;62576;55.694;37.494;2023-03-13T03:39:27;3.05;;;1.00;;
74213;SDS011;62576;55.694;37.494;2023-03-13T03:41:58;2.17;;;1.27;;
74213;SDS011;62576;55.694;37.494;2023-03-13T03:44:29;1.45;;;1.08;;
74213;SDS011;62576;55.694;37.494;2023-03-13T03:46:58;2.15;;;1.02;;
74213;SDS011;62576;55.694;37.494;2023-03-13T03:49:29;3.58;;;1.17;;
74213;SDS011;62576;55.694;37.494;2023-03-13T03:51:59;2.33;;;1.40;;
74213;SDS011;62576;55.694;37.494;2023-03-13T03:54:29;2.75;;;1.17;;
74213;SDS011;62576;55.694;37.494;2023-03-13T03:57:01;1.77;;;0.90;;
74213;SDS011;62576;55.694;37.494;2023-03-13T03:59:31;2.50;;;1.30;;
74213;SDS011;62576;55.694;37.494;2023-03-13T04:02:02;3.17;;;1.45;;
74213;SDS011;62576;55.694;37.494;2023-03-13T04:04:32;2.78;;;1.40;;
74213;SDS011;62576;55.694;37.494;2023-03-13T04:07:03;2.90;;;1.13;;
74213;SDS011;62576;55.694;37.494;2023-03-13T04:09:33;3.38;;;1.40;;
74213;SDS011;62576;55.694;37.494;2023-03-13T04:12:05;2.42;;;1.20;;
74213;SDS011;62576;55.694;37.494;2023-03-13T04:14:36;3.67;;;1.60;;
74213;SDS011;62576;55.694;37.494;2023-03-13T04:17:06;4.68;;;1.40;;
74213;SDS011;62576;55.694;37.494;2023-03-13T04:19:37;2.80;;;1.20;;
74213;SDS011;62576;55.694;37.494;2023-03-13T04:22:07;1.45;;;1.02;;
74213;SDS011;62576;55.694;37.494;2023-03-13T04:24:37;2.33;;;1.20;;
74213;SDS011;62576;55.694;37.494;2023-03-13T04:27:09;2.65;;;1.10;;
74213;SDS011;62576;55.694;37.494;2023-03-13T04:29:39;2.20;;;1.20;;
74213;SDS011;62576;55.694;37.494;2023-03-13T04:32:09;2.65;;;1.40;;
74213;SDS011;62576;55.694;37.494;2023-03-13T04:34:39;2.65;;;1.25;;
74213;SDS011;62576;55.694;37.494;2023-03-13T04:37:10;2.92;;;1.17;;
74213;SDS011;62576;55.694;37.494;2023-03-13T04:39:40;2.55;;;1.13;;
74213;SDS011;62576;55.694;37.494;2023-03-13T04:42:12;3.08;;;1.35;;
74213;SDS011;62576;55.694;37.494;2023-03-13T04:44:42;2.65;;;1.20;;
74213;SDS011;62576;55.694;37.494;2023-03-13T04:47:13;2.17;;;1.20;;
74213;SDS011;62576;55.694;37.494;2023-03-13T04:49:43;3.30;;;1.13;;
74213;SDS011;62576;55.694;37.494;2023-03-13T04:52:15;2.17;;;1.23;;
74213;SDS011;62576;55.694;37.494;2023-03-13T04:54:45;4.75;;;1.52;;
74213;SDS011;62576;55.694;37.494;2023-03-13T04:57:19;3.42;;;1.30;;
74213;SDS011;62576;55.694;37.494;2023-03-13T04:59:49;6.53;;;2.60;;
74213;SDS011;62576;55.694;37.494;2023-03-13T05:02:20;4.68;;;1.33;;
74213;SDS011;62576;55.694;37.494;2023-03-13T05:04:51;3.75;;;1.40;;
74213;SDS011;62576;55.694;37.494;2023-03-13T05:07:22;1.38;;;0.90;;
74213;SDS011;62576;55.694;37.494;2023-03-13T05:09:52;3.55;;;1.05;;
74213;SDS011;62576;55.694;37.494;2023-03-13T05:12:24;1.73;;;1.20;;
74213;SDS011;62576;55.694;37.494;2023-03-13T05:14:55;2.78;;;1.50;;
74213;SDS011;62576;55.694;37.494;2023-03-13T05:23:34;2.75;;;1.23;;
74213;SDS011;62576;55.694;37.494;2023-03-13T05:26:28;2.60;;;1.20;;
74213;SDS011;62576;55.694;37.494;2023-03-13T05:29:00;2.20;;;1.17;;
74213;SDS011;62576;55.694;37.494;2023-03-13T05:31:31;2.65;;;1.40;;
74213;SDS011;62576;55.694;37.494;2023-03-13T05:34:01;4.25;;;1.45;;
74213;SDS011;62576;55.694;37.494;2023-03-13T05:36:32;4.43;;;1.35;;
74213;SDS011;62576;55.694;37.494;2023-03-13T05:41:53;4.22;;;1.40;;
74213;SDS011;62576;55.694;37.494;2023-03-13T05:44:34;7.18;;;1.65;;
74213;SDS011;62576;55.694;37.494;2023-03-13T05:47:05;5.20;;;1.42;;
74213;SDS011;62576;55.694;37.494;2023-03-13T05:49:35;5.93;;;1.30;;
74213;SDS011;62576;55.694;37.494;2023-03-13T05:52:06;3.05;;;1.40;;
74213;SDS011;62576;55.694;37.494;2023-03-13T05:54:36;3.40;;;1.40;;
74213;SDS011;62576;55.694;37.494;2023-03-13T05:57:07;4.72;;;1.50;;
74213;SDS011;62576;55.694;37.494;2023-03-13T05:59:38;2.80;;;1.25;;
74213;SDS011;62576;55.694;37.494;2023-03-13T06:02:09;2.35;;;1.27;;
74213;SDS011;62576;55.694;37.494;2023-03-13T06:04:39;2.53;;;1.23;;
74213;SDS011;62576;55.694;37.494;2023-03-13T06:07:09;3.95;;;1.30;;
74213;SDS011;62576;55.694;37.494;2023-03-13T06:09:41;3.92;;;1.60;;
74213;SDS011;62576;55.694;37.494;2023-03-13T06:12:11;3.47;;;1.33;;
74213;SDS011;62576;55.694;37.494;2023-03-13T06:14:43;4.72;;;1.70;;
74213;SDS011;62576;55.694;37.494;2023-03-13T06:17:14;6.50;;;1.33;;
74213;SDS011;62576;55.694;37.494;2023-03-13T06:19:47;4.20;;;1.40;;
74213;SDS011;62576;55.694;37.494;2023-03-13T06:22:17;4.82;;;1.40;;
74213;SDS011;62576;55.694;37.494;2023-03-13T06:24:48;3.33;;;1.45;;
74213;SDS011;62576;55.694;37.494;2023-03-13T06:27:18;5.22;;;1.50;;
74213;SDS011;62576;55.694;37.494;2023-03-13T06:29:50;3.03;;;1.70;;
74213;SDS011;62576;55.694;37.494;2023-03-13T06:32:21;2.90;;;1.23;;
74213;SDS011;62576;55.694;37.494;2023-03-13T06:34:51;2.58;;;1.23;;
74213;SDS011;62576;55.694;37.494;2023-03-13T06:37:21;3.78;;;1.20;;
74213;SDS011;62576;55.694;37.494;2023-03-13T06:39:52;3.65;;;1.40;;
74213;SDS011;62576;55.694;37.494;2023-03-13T06:42:22;2.10;;;1.10;;
74213;SDS011;62576;55.694;37.494;2023-03-13T06:44:54;2.92;;;1.17;;
74213;SDS011;62576;55.694;37.494;2023-03-13T06:47:24;2.80;;;1.23;;
74213;SDS011;62576;55.694;37.494;2023-03-13T06:49:54;3.88;;;1.17;;
74213;SDS011;62576;55.694;37.494;2023-03-13T06:52:25;2.80;;;1.23;;
74213;SDS011;62576;55.694;37.494;2023-03-13T06:54:55;2.03;;;1.10;;
74213;SDS011;62576;55.694;37.494;2023-03-13T06:57:25;9.75;;;1.60;;
74213;SDS011;62576;55.694;37.494;2023-03-13T07:00:00;4.15;;;1.42;;
74213;SDS011;62576;55.694;37.494;2023-03-13T07:02:33;3.70;;;1.50;;
74213;SDS011;62576;55.694;37.494;2023-03-13T07:05:03;4.18;;;1.50;;
74213;SDS011;62576;55.694;37.494;2023-03-13T07:07:35;3.97;;;1.50;;
74213;SDS011;62576;55.694;37.494;2023-03-13T07:10:05;3.67;;;1.58;;
74213;SDS011;62576;55.694;37.494;2023-03-13T07:12:37;3.38;;;1.42;;
74213;SDS011;62576;55.694;37.494;2023-03-13T07:15:09;3.80;;;1.60;;
74213;SDS011;62576;55.694;37.494;2023-03-13T07:17:40;5.70;;;1.90;;
74213;SDS011;62576;55.694;37.494;2023-03-13T07:20:11;3.83;;;1.65;;
74213;SDS011;62576;55.694;37.494;2023-03-13T07:22:41;5.03;;;1.48;;
74213;SDS011;62576;55.694;37.494;2023-03-13T07:25:19;3.60;;;1.25;;
74213;SDS011;62576;55.694;37.494;2023-03-13T07:27:50;6.28;;;1.77;;
74213;SDS011;62576;55.694;37.494;2023-03-13T07:30:22;4.25;;;1.70;;
74213;SDS011;62576;55.694;37.494;2023-03-13T07:32:52;6.70;;;1.70;;
74213;SDS011;62576;55.694;37.494;2023-03-13T07:35:22;4.57;;;1.73;;
74213;SDS011;62576;55.694;37.494;2023-03-13T07:37:53;4.90;;;1.80;;
74213;SDS011;62576;55.694;37.494;2023-03-13T07:40:24;5.15;;;1.33;;
74213;SDS011;62576;55.694;37.494;2023-03-13T07:42:54;4.82;;;1.35;;
74213;SDS011;62576;55.694;37.494;2023-03-13T07:45:27;2.22;;;1.08;;
74213;SDS011;62576;55.694;37.494;2023-03-13T07:47:57;1.75;;;1.00;;
74213;SDS011;62576;55.694;37.494;2023-03-13T07:50:28;3.53;;;1.50;;
74213;SDS011;62576;55.694;37.494;2023-03-13T07:52:58;3.75;;;1.45;;
74213;SDS011;62576;55.694;37.494;2023-03-13T07:55:28;5.70;;;1.63;;
74213;SDS011;62576;55.694;37.494;2023-03-13T07:57:56;4.38;;;1.50;;
74213;SDS011;62576;55.694;37.494;2023-03-13T08:00:28;6.25;;;1.35;;
74213;SDS011;62576;55.694;37.494;2023-03-13T08:02:58;6.05;;;1.77;;
74213;SDS011;62576;55.694;37.494;2023-03-13T08:05:29;3.55;;;1.38;;
74213;SDS011;62576;55.694;37.494;2023-03-13T08:07:59;2.22;;;1.20;;
74213;SDS011;62576;55.694;37.494;2023-03-13T08:10:29;4.72;;;1.70;;
74213;SDS011;62576;55.694;37.494;2023-03-13T08:13:04;6.97;;;2.13;;
74213;SDS011;62576;55.694;37.494;2023-03-13T08:15:32;3.63;;;1.38;;
74213;SDS011;62576;55.694;37.494;2023-03-13T08:18:02;4.35;;;1.50;;
74213;SDS011;62576;55.694;37.494;2023-03-13T08:20:33;3.85;;;1.30;;
74213;SDS011;62576;55.694;37.494;2023-03-13T08:23:03;3.17;;;1.48;;
74213;SDS011;62576;55.694;37.494;2023-03-13T08:25:34;4.60;;;1.85;;
74213;SDS011;62576;55.694;37.494;2023-03-13T08:28:05;4.18;;;1.30;;
74213;SDS011;62576;55.694;37.494;2023-03-13T08:30:38;2.72;;;1.45;;
74213;SDS011;62576;55.694;37.494;2023-03-13T08:33:08;6.95;;;1.30;;
74213;SDS011;62576;55.694;37.494;2023-03-13T08:35:38;4.18;;;1.33;;
74213;SDS011;62576;55.694;37.494;2023-03-13T08:38:08;3.47;;;1.15;;
74213;SDS011;62576;55.694;37.494;2023-03-13T08:40:38;5.03;;;1.52;;
74213;SDS011;62576;55.694;37.494;2023-03-13T08:43:11;6.65;;;1.30;;
74213;SDS011;62576;55.694;37.494;2023-03-13T08:45:43;5.63;;;1.60;;
74213;SDS011;62576;55.694;37.494;2023-03-13T08:48:13;3.92;;;1.33;;
74213;SDS011;62576;55.694;37.494;2023-03-13T08:50:43;6.38;;;1.60;;
74213;SDS011;62576;55.694;37.494;2023-03-13T08:53:14;5.03;;;1.80;;
74213;SDS011;62576;55.694;37.494;2023-03-13T08:55:50;5.15;;;1.80;;
74213;SDS011;62576;55.694;37.494;2023-03-13T08:58:18;4.22;;;1.20;;
74213;SDS011;62576;55.694;37.494;2023-03-13T09:00:51;3.88;;;1.40;;
74213;SDS011;62576;55.694;37.494;2023-03-13T09:03:21;3.33;;;1.13;;
74213;SDS011;62576;55.694;37.494;2023-03-13T09:05:52;3.97;;;1.67;;
74213;SDS011;62576;55.694;37.494;2023-03-13T09:08:22;8.00;;;1.60;;
74213;SDS011;62576;55.694;37.494;2023-03-13T09:10:56;8.73;;;1.75;;
74213;SDS011;62576;55.694;37.494;2023-03-13T09:13:26;6.95;;;2.17;;
74213;SDS011;62576;55.694;37.494;2023-03-13T09:16:00;4.18;;;1.67;;
74213;SDS011;62576;55.694;37.494;2023-03-13T09:18:32;5.50;;;1.83;;
74213;SDS011;62576;55.694;37.494;2023-03-13T09:21:04;4.32;;;1.63;;
74213;SDS011;62576;55.694;37.494;2023-03-13T09:23:36;6.10;;;1.97;;
74213;SDS011;62576;55.694;37.494;2023-03-13T09:26:06;2.50;;;1.23;;
74213;SDS011;62576;55.694;37.494;2023-03-13T09:28:36;2.83;;;1.27;;
74213;SDS011;62576;55.694;37.494;2023-03-13T09:31:08;6.57;;;1.85;;
74213;SDS011;62576;55.694;37.494;2023-03-13T09:33:39;5.72;;;1.75;;
74213;SDS011;62576;55.694;37.494;2023-03-13T09:36:10;4.40;;;1.33;;
74213;SDS011;62576;55.694;37.494;2023-03-13T09:38:42;4.00;;;1.67;;
74213;SDS011;62576;55.694;37.494;2023-03-13T09:44:04;2.03;;;1.20;;
74213;SDS011;62576;55.694;37.494;2023-03-13T09:46:47;5.10;;;1.77;;
74213;SDS011;62576;55.694;37.494;2023-03-13T09:49:28;5.38;;;1.60;;
74213;SDS011;62576;55.694;37.494;2023-03-13T09:52:01;4.13;;;1.90;;
74213;SDS011;62576;55.694;37.494;2023-03-13T09:54:41;3.60;;;1.70;;
74213;SDS011;62576;55.694;37.494;2023-03-13T09:57:18;5.43;;;1.70;;
74213;SDS011;62576;55.694;37.494;2023-03-13T09:59:54;4.68;;;2.17;;
74213;SDS011;62576;55.694;37.494;2023-03-13T10:02:30;7.03;;;2.40;;
74213;SDS011;62576;55.694;37.494;2023-03-13T10:05:04;7.15;;;2.35;;
74213;SDS011;62576;55.694;37.494;2023-03-13T10:07:39;9.20;;;1.80;;
74213;SDS011;62576;55.694;37.494;2023-03-13T10:10:13;4.25;;;2.25;;
74213;SDS011;62576;55.694;37.494;2023-03-13T10:12:46;5.93;;;1.98;;
74213;SDS011;62576;55.694;37.494;2023-03-13T10:15:26;3.33;;;1.48;;
74213;SDS011;62576;55.694;37.494;2023-03-13T10:18:10;3.33;;;1.70;;
74213;SDS011;62576;55.694;37.494;2023-03-13T10:20:45;4.18;;;1.83;;
74213;SDS011;62576;55.694;37.494;2023-03-13T10:23:18;4.90;;;2.40;;
74213;SDS011;62576;55.694;37.494;2023-03-13T10:25:55;3.72;;;1.42;;
74213;SDS011;62576;55.694;37.494;2023-03-13T10:28:25;4.80;;;1.92;;
74213;SDS011;62576;55.694;37.494;2023-03-13T10:30:58;5.53;;;2.08;;
74213;SDS011;62576;55.694;37.494;2023-03-13T10:33:35;6.00;;;1.80;;
74213;SDS011;62576;55.694;37.494;2023-03-13T10:36:10;8.60;;;2.10;;
74213;SDS011;62576;55.694;37.494;2023-03-13T10:38:46;7.85;;;1.85;;
74213;SDS011;62576;55.694;37.494;2023-03-13T10:41:19;4.10;;;1.77;;
74213;SDS011;62576;55.694;37.494;2023-03-13T10:43:58;30.40;;;3.22;;
74213;SDS011;62576;55.694;37.494;2023-03-13T10:46:32;3.70;;;1.70;;
74213;SDS011;62576;55.694;37.494;2023-03-13T10:49:15;4.82;;;1.90;;
74213;SDS011;62576;55.694;37.494;2023-03-13T10:51:48;6.78;;;2.00;;
74213;SDS011;62576;55.694;37.494;2023-03-13T10:54:24;5.72;;;1.95;;
74213;SDS011;62576;55.694;37.494;2023-03-13T10:59:53;11.52;;;4.47;;
74213;SDS011;62576;55.694;37.494;2023-03-13T11:02:31;7.95;;;2.03;;
74213;SDS011;62576;55.694;37.494;2023-03-13T11:05:06;5.82;;;2.47;;
74213;SDS011;62576;55.694;37.494;2023-03-13T11:08:10;5.97;;;2.13;;
74213;SDS011;62576;55.694;37.494;2023-03-13T11:10:49;6.60;;;2.08;;
74213;SDS011;62576;55.694;37.494;2023-03-13T11:13:27;6.18;;;2.53;;
74213;SDS011;62576;55.694;37.494;2023-03-13T11:16:00;5.80;;;2.10;;
74213;SDS011;62576;55.694;37.494;2023-03-13T11:18:40;7.53;;;2.80;;
74213;SDS011;62576;55.694;37.494;2023-03-13T11:21:23;8.00;;;2.33;;
74213;SDS011;62576;55.694;37.494;2023-03-13T11:24:02;6.78;;;2.85;;
74213;SDS011;62576;55.694;37.494;2023-03-13T11:26:40;4.65;;;2.20;;
74213;SDS011;62576;55.694;37.494;2023-03-13T11:29:22;7.83;;;2.70;;
74213;SDS011;62576;55.694;37.494;2023-03-13T11:32:01;8.35;;;2.60;;
74213;SDS011;62576;55.694;37.494;2023-03-13T11:34:42;5.18;;;2.05;;
74213;SDS011;62576;55.694;37.494;2023-03-13T11:37:22;5.80;;;2.58;;
74213;SDS011;62576;55.694;37.494;2023-03-13T11:40:02;7.15;;;2.70;;
74213;SDS011;62576;55.694;37.494;2023-03-13T11:42:54;17.05;;;2.88;;
74213;SDS011;62576;55.694;37.494;2023-03-13T11:51:45;14.63;;;2.70;;
74213;SDS011;62576;55.694;37.494;2023-03-13T11:54:46;6.95;;;2.58;;
74213;SDS011;62576;55.694;37.494;2023-03-13T11:57:37;7.97;;;2.60;;
74213;SDS011;62576;55.694;37.494;2023-03-13T12:00:20;9.23;;;3.42;;
74213;SDS011;62576;55.694;37.494;2023-03-13T12:03:02;10.30;;;3.72;;
74213;SDS011;62576;55.694;37.494;2023-03-13T12:05:40;8.82;;;3.40;;
74213;SDS011;62576;55.694;37.494;2023-03-13T12:08:15;8.32;;;3.25;;
74213;SDS011;62576;55.694;37.494;2023-03-13T12:10:54;11.07;;;3.22;;
74213;SDS011;62576;55.694;37.494;2023-03-13T12:13:36;7.28;;;2.85;;
74213;SDS011;62576;55.694;37.494;2023-03-13T12:18:43;6.97;;;3.33;;
74213;SDS011;62576;55.694;37.494;2023-03-13T12:21:16;6.97;;;2.90;;
74213;SDS011;62576;55.694;37.494;2023-03-13T12:23:55;7.05;;;3.15;;
74213;SDS011;62576;55.694;37.494;2023-03-13T12:26:36;7.00;;;3.00;;
74213;SDS011;62576;55.694;37.494;2023-03-13T12:29:12;9.07;;;2.50;;
74213;SDS011;62576;55.694;37.494;2023-03-13T12:31:46;6.68;;;3.50;;
74213;SDS011;62576;55.694;37.494;2023-03-13T12:34:22;8.90;;;3.55;;
74213;SDS011;62576;55.694;37.494;2023-03-13T12:37:00;10.00;;;3.63;;
74213;SDS011;62576;55.694;37.494;2023-03-13T12:39:39;7.13;;;2.50;;
74213;SDS011;62576;55.694;37.494;2023-03-13T12:42:25;9.18;;;2.40;;
74213;SDS011;62576;55.694;37.494;2023-03-13T12:45:06;5.47;;;2.03;;
74213;SDS011;62576;55.694;37.494;2023-03-13T12:50:39;10.90;;;2.53;;
74213;SDS011;62576;55.694;37.494;2023-03-13T12:53:25;6.00;;;2.47;;
74213;SDS011;62576;55.694;37.494;2023-03-13T12:56:29;6.13;;;2.08;;
74213;SDS011;62576;55.694;37.494;2023-03-13T12:59:13;6.18;;;2.40;;
74213;SDS011;62576;55.694;37.494;2023-03-13T13:01:47;5.85;;;2.17;;
74213;SDS011;62576;55.694;37.494;2023-03-13T13:04:21;11.15;;;2.45;;
74213;SDS011;62576;55.694;37.494;2023-03-13T13:06:58;6.80;;;2.10;;
74213;SDS011;62576;55.694;37.494;2023-03-13T13:09:33;5.00;;;2.22;;
74213;SDS011;62576;55.694;37.494;2023-03-13T13:12:17;5.03;;;1.70;;
74213;SDS011;62576;55.694;37.494;2023-03-13T13:14:57;4.93;;;2.00;;
74213;SDS011;62576;55.694;37.494;2023-03-13T13:17:46;5.88;;;1.48;;
74213;SDS011;62576;55.694;37.494;2023-03-13T13:20:35;4.95;;;2.00;;
74213;SDS011;62576;55.694;37.494;2023-03-13T13:23:27;3.47;;;1.60;;
74213;SDS011;62576;55.694;37.494;2023-03-13T13:35:31;3.58;;;1.63;;
74213;SDS011;62576;55.694;37.494;2023-03-13T13:46:56;5.35;;;1.40;;
74213;SDS011;62576;55.694;37.494;2023-03-13T13:49:32;3.38;;;1.30;;
74213;SDS011;62576;55.694;37.494;2023-03-13T13:52:18;1.80;;;1.15;;
74213;SDS011;62576;55.694;37.494;2023-03-13T13:57:58;2.70;;;1.23;;
74213;SDS011;62576;55.694;37.494;2023-03-13T14:00:36;3.90;;;1.35;;
74213;SDS011;62576;55.694;37.494;2023-03-13T14:03:18;6.22;;;1.85;;
74213;SDS011;62576;55.694;37.494;2023-03-13T14:05:53;8.27;;;1.73;;
74213;SDS011;62576;55.694;37.494;2023-03-13T14:08:23;4.50;;;1.60;;
74213;SDS011;62576;55.694;37.494;2023-03-13T14:11:05;5.38;;;1.90;;
74213;SDS011;62576;55.694;37.494;2023-03-13T14:16:42;4.75;;;1.65;;
74213;SDS011;62576;55.694;37.494;2023-03-13T14:19:25;4.38;;;2.00;;
74213;SDS011;62576;55.694;37.494;2023-03-13T14:22:02;3.97;;;1.75;;
74213;SDS011;62576;55.694;37.494;2023-03-13T14:24:34;5.57;;;1.70;;
74213;SDS011;62576;55.694;37.494;2023-03-13T14:27:13;5.32;;;1.80;;
74213;SDS011;62576;55.694;37.494;2023-03-13T14:29:58;4.18;;;1.70;;
74213;SDS011;62576;55.694;37.494;2023-03-13T14:32:29;7.57;;;1.98;;
74213;SDS011;62576;55.694;37.494;2023-03-13T14:35:00;7.38;;;1.75;;
74213;SDS011;62576;55.694;37.494;2023-03-13T14:37:35;2.35;;;1.33;;
74213;SDS011;62576;55.694;37.494;2023-03-13T14:42:59;3.13;;;1.40;;
74213;SDS011;62576;55.694;37.494;2023-03-13T14:45:31;3.70;;;1.50;;
74213;SDS011;62576;55.694;37.494;2023-03-13T14:48:04;5.20;;;1.40;;
74213;SDS011;62576;55.694;37.494;2023-03-13T14:50:48;3.58;;;1.45;;
74213;SDS011;62576;55.694;37.494;2023-03-13T14:53:22;4.50;;;1.33;;
74213;SDS011;62576;55.694;37.494;2023-03-13T14:58:46;4.82;;;1.45;;
74213;SDS011;62576;55.694;37.494;2023-03-13T15:01:21;2.92;;;1.33;;
74213;SDS011;62576;55.694;37.494;2023-03-13T15:03:54;2.28;;;1.20;;
74213;SDS011;62576;55.694;37.494;2023-03-13T15:06:24;4.05;;;1.10;;
74213;SDS011;62576;55.694;37.494;2023-03-13T15:11:56;6.13;;;1.40;;
74213;SDS011;62576;55.694;37.494;2023-03-13T15:14:31;2.58;;;1.10;;
74213;SDS011;62576;55.694;37.494;2023-03-13T15:17:09;6.18;;;1.55;;
74213;SDS011;62576;55.694;37.494;2023-03-13T15:19:46;5.20;;;2.33;;
74213;SDS011;62576;55.694;37.494;2023-03-13T15:22:20;4.25;;;1.42;;
74213;SDS011;62576;55.694;37.494;2023-03-13T15:24:57;3.67;;;1.38;;
74213;SDS011;62576;55.694;37.494;2023-03-13T15:27:28;5.28;;;1.77;;
74213;SDS011;62576;55.694;37.494;2023-03-13T15:30:01;2.40;;;1.23;;
74213;SDS011;62576;55.694;37.494;2023-03-13T15:32:32;2.40;;;1.42;;
74213;SDS011;62576;55.694;37.494;2023-03-13T15:35:15;3.15;;;1.17;;
74213;SDS011;62576;55.694;37.494;2023-03-13T15:37:54;3.03;;;1.20;;
74213;SDS011;62576;55.694;37.494;2023-03-13T15:40:27;3.70;;;1.65;;
74213;SDS011;62576;55.694;37.494;2023-03-13T15:43:01;2.20;;;1.20;;
74213;SDS011;62576;55.694;37.494;2023-03-13T15:45:31;2.17;;;1.08;;
74213;SDS011;62576;55.694;37.494;2023-03-13T15:48:04;2.25;;;0.90;;
74213;SDS011;62576;55.694;37.494;2023-03-13T15:53:26;2.22;;;1.13;;
74213;SDS011;62576;55.694;37.494;2023-03-13T15:56:09;1.70;;;1.00;;
74213;SDS011;62576;55.694;37.494;2023-03-13T15:58:42;4.00;;;1.50;;
74213;SDS011;62576;55.694;37.494;2023-03-13T16:01:14;2.88;;;1.30;;
74213;SDS011;62576;55.694;37.494;2023-03-13T16:03:47;2.53;;;1.20;;
74213;SDS011;62576;55.694;37.494;2023-03-13T16:06:21;2.80;;;1.40;;
74213;SDS011;62576;55.694;37.494;2023-03-13T16:08:58;3.15;;;1.40;;
74213;SDS011;62576;55.694;37.494;2023-03-13T16:11:32;2.40;;;1.40;;
74213;SDS011;62576;55.694;37.494;2023-03-13T16:14:05;2.25;;;1.13;;
74213;SDS011;62576;55.694;37.494;2023-03-13T16:16:37;4.45;;;1.67;;
74213;SDS011;62576;55.694;37.494;2023-03-13T16:19:10;2.40;;;1.30;;